sensor_id;sensor_type;location;lat;lon;timestamp;P1;durP1;ratioP1;P2;durP2;ratioP2
76210;SDS011;65003;49.518;11.280;2023-03-01T00:01:54;18.60;;;11.20;;
76210;SDS011;65003;49.518;11.280;2023-03-01T00:04:20;15.50;;;10.53;;
76210;SDS011;65003;49.518;11.280;2023-03-01T00:06:47;18.67;;;10.63;;
76210;SDS011;65003;49.518;11.280;2023-03-01T00:09:14;19.23;;;11.10;;
76210;SDS011;65003;49.518;11.280;2023-03-01T00:11:40;16.63;;;10.67;;
76210;SDS011;65003;49.518;11.280;2023-03-01T00:14:07;19.90;;;10.63;;
76210;SDS011;65003;49.518;11.280;2023-03-01T00:16:35;16.90;;;10.33;;
76210;SDS011;65003;49.518;11.280;2023-03-01T00:19:02;18.47;;;11.60;;
76210;SDS011;65003;49.518;11.280;2023-03-01T00:21:28;15.07;;;9.53;;
76210;SDS011;65003;49.518;11.280;2023-03-01T00:23:54;22.27;;;11.67;;
76210;SDS011;65003;49.518;11.280;2023-03-01T00:26:21;20.03;;;11.57;;
76210;SDS011;65003;49.518;11.280;2023-03-01T00:28:47;18.03;;;10.90;;
76210;SDS011;65003;49.518;11.280;2023-03-01T00:31:15;21.43;;;11.17;;
76210;SDS011;65003;49.518;11.280;2023-03-01T00:33:41;21.33;;;10.97;;
76210;SDS011;65003;49.518;11.280;2023-03-01T00:36:07;18.43;;;11.63;;
76210;SDS011;65003;49.518;11.280;2023-03-01T00:38:34;18.60;;;11.73;;
76210;SDS011;65003;49.518;11.280;2023-03-01T00:41:02;19.27;;;11.00;;
76210;SDS011;65003;49.518;11.280;2023-03-01T00:43:28;17.73;;;11.37;;
76210;SDS011;65003;49.518;11.280;2023-03-01T00:45:55;21.43;;;11.30;;
76210;SDS011;65003;49.518;11.280;2023-03-01T00:48:22;18.50;;;11.47;;
76210;SDS011;65003;49.518;11.280;2023-03-01T00:50:48;22.37;;;11.93;;
76210;SDS011;65003;49.518;11.280;2023-03-01T00:53:15;19.67;;;12.40;;
76210;SDS011;65003;49.518;11.280;2023-03-01T00:55:41;15.77;;;10.17;;
76210;SDS011;65003;49.518;11.280;2023-03-01T00:58:08;19.40;;;12.37;;
76210;SDS011;65003;49.518;11.280;2023-03-01T01:00:35;17.37;;;11.17;;
76210;SDS011;65003;49.518;11.280;2023-03-01T01:03:01;22.60;;;11.63;;
76210;SDS011;65003;49.518;11.280;2023-03-01T01:05:28;22.57;;;11.47;;
76210;SDS011;65003;49.518;11.280;2023-03-01T01:07:54;20.43;;;11.70;;
76210;SDS011;65003;49.518;11.280;2023-03-01T01:10:21;21.40;;;11.90;;
76210;SDS011;65003;49.518;11.280;2023-03-01T01:12:48;20.33;;;11.20;;
76210;SDS011;65003;49.518;11.280;2023-03-01T01:15:14;19.27;;;11.43;;
76210;SDS011;65003;49.518;11.280;2023-03-01T01:17:41;21.67;;;11.83;;
76210;SDS011;65003;49.518;11.280;2023-03-01T01:20:08;19.53;;;11.63;;
76210;SDS011;65003;49.518;11.280;2023-03-01T01:22:35;19.30;;;10.77;;
76210;SDS011;65003;49.518;11.280;2023-03-01T01:25:02;19.40;;;11.27;;
76210;SDS011;65003;49.518;11.280;2023-03-01T01:27:29;16.82;;;11.22;;
76210;SDS011;65003;49.518;11.280;2023-03-01T01:29:56;18.23;;;11.83;;
76210;SDS011;65003;49.518;11.280;2023-03-01T01:32:22;18.90;;;11.07;;
76210;SDS011;65003;49.518;11.280;2023-03-01T01:34:49;16.40;;;10.20;;
76210;SDS011;65003;49.518;11.280;2023-03-01T01:37:15;18.63;;;11.03;;
76210;SDS011;65003;49.518;11.280;2023-03-01T01:39:42;19.27;;;11.10;;
76210;SDS011;65003;49.518;11.280;2023-03-01T01:42:12;20.73;;;11.83;;
76210;SDS011;65003;49.518;11.280;2023-03-01T01:44:46;26.23;;;11.53;;
76210;SDS011;65003;49.518;11.280;2023-03-01T01:47:13;18.93;;;11.57;;
76210;SDS011;65003;49.518;11.280;2023-03-01T01:49:47;22.53;;;13.20;;
76210;SDS011;65003;49.518;11.280;2023-03-01T01:52:17;18.83;;;12.13;;
76210;SDS011;65003;49.518;11.280;2023-03-01T01:54:49;32.00;;;13.17;;
76210;SDS011;65003;49.518;11.280;2023-03-01T01:57:19;18.47;;;11.50;;
76210;SDS011;65003;49.518;11.280;2023-03-01T01:59:47;18.53;;;10.83;;
76210;SDS011;65003;49.518;11.280;2023-03-01T02:02:10;19.83;;;11.83;;
76210;SDS011;65003;49.518;11.280;2023-03-01T02:04:37;22.37;;;11.97;;
76210;SDS011;65003;49.518;11.280;2023-03-01T02:07:07;18.77;;;11.93;;
76210;SDS011;65003;49.518;11.280;2023-03-01T02:09:47;19.00;;;12.10;;
76210;SDS011;65003;49.518;11.280;2023-03-01T02:12:14;21.23;;;11.60;;
76210;SDS011;65003;49.518;11.280;2023-03-01T02:14:41;21.67;;;11.60;;
76210;SDS011;65003;49.518;11.280;2023-03-01T02:17:08;22.40;;;11.33;;
76210;SDS011;65003;49.518;11.280;2023-03-01T02:19:39;17.23;;;10.83;;
76210;SDS011;65003;49.518;11.280;2023-03-01T02:22:22;18.77;;;11.50;;
76210;SDS011;65003;49.518;11.280;2023-03-01T02:24:49;17.73;;;10.90;;
76210;SDS011;65003;49.518;11.280;2023-03-01T02:27:13;16.00;;;10.90;;
76210;SDS011;65003;49.518;11.280;2023-03-01T02:29:40;19.27;;;11.30;;
76210;SDS011;65003;49.518;11.280;2023-03-01T02:32:06;17.73;;;10.77;;
76210;SDS011;65003;49.518;11.280;2023-03-01T02:34:33;15.88;;;10.63;;
76210;SDS011;65003;49.518;11.280;2023-03-01T02:37:02;17.77;;;11.00;;
76210;SDS011;65003;49.518;11.280;2023-03-01T02:39:31;16.70;;;10.70;;
76210;SDS011;65003;49.518;11.280;2023-03-01T02:41:56;19.67;;;10.10;;
76210;SDS011;65003;49.518;11.280;2023-03-01T02:44:23;15.47;;;10.53;;
76210;SDS011;65003;49.518;11.280;2023-03-01T02:46:51;15.80;;;10.43;;
76210;SDS011;65003;49.518;11.280;2023-03-01T02:49:20;16.90;;;10.40;;
76210;SDS011;65003;49.518;11.280;2023-03-01T02:51:48;16.67;;;10.17;;
76210;SDS011;65003;49.518;11.280;2023-03-01T02:54:36;20.10;;;10.90;;
76210;SDS011;65003;49.518;11.280;2023-03-01T02:57:05;18.37;;;11.93;;
76210;SDS011;65003;49.518;11.280;2023-03-01T02:59:32;25.00;;;12.57;;
76210;SDS011;65003;49.518;11.280;2023-03-01T03:01:58;23.97;;;13.03;;
76210;SDS011;65003;49.518;11.280;2023-03-01T03:04:25;23.53;;;12.30;;
76210;SDS011;65003;49.518;11.280;2023-03-01T03:06:51;19.53;;;12.37;;
76210;SDS011;65003;49.518;11.280;2023-03-01T03:09:18;21.67;;;11.37;;
76210;SDS011;65003;49.518;11.280;2023-03-01T03:11:45;20.17;;;11.73;;
76210;SDS011;65003;49.518;11.280;2023-03-01T03:14:12;19.20;;;11.90;;
76210;SDS011;65003;49.518;11.280;2023-03-01T03:16:40;16.63;;;11.30;;
76210;SDS011;65003;49.518;11.280;2023-03-01T03:19:06;19.40;;;11.40;;
76210;SDS011;65003;49.518;11.280;2023-03-01T03:21:33;18.63;;;10.57;;
76210;SDS011;65003;49.518;11.280;2023-03-01T03:23:59;20.33;;;11.23;;
76210;SDS011;65003;49.518;11.280;2023-03-01T03:26:26;17.00;;;11.43;;
76210;SDS011;65003;49.518;11.280;2023-03-01T03:28:52;20.83;;;11.73;;
76210;SDS011;65003;49.518;11.280;2023-03-01T03:31:19;16.80;;;10.33;;
76210;SDS011;65003;49.518;11.280;2023-03-01T03:33:45;17.70;;;11.07;;
76210;SDS011;65003;49.518;11.280;2023-03-01T03:36:16;16.37;;;10.63;;
76210;SDS011;65003;49.518;11.280;2023-03-01T03:38:42;18.87;;;10.20;;
76210;SDS011;65003;49.518;11.280;2023-03-01T03:41:09;19.90;;;11.57;;
76210;SDS011;65003;49.518;11.280;2023-03-01T03:43:36;18.00;;;11.50;;
76210;SDS011;65003;49.518;11.280;2023-03-01T03:46:02;18.23;;;10.90;;
76210;SDS011;65003;49.518;11.280;2023-03-01T03:48:34;20.17;;;12.47;;
76210;SDS011;65003;49.518;11.280;2023-03-01T03:50:59;20.23;;;11.67;;
76210;SDS011;65003;49.518;11.280;2023-03-01T03:53:27;19.67;;;11.87;;
76210;SDS011;65003;49.518;11.280;2023-03-01T03:55:53;20.50;;;11.03;;
76210;SDS011;65003;49.518;11.280;2023-03-01T03:58:20;19.83;;;12.17;;
76210;SDS011;65003;49.518;11.280;2023-03-01T04:00:46;18.70;;;11.13;;
76210;SDS011;65003;49.518;11.280;2023-03-01T04:03:12;19.53;;;11.37;;
76210;SDS011;65003;49.518;11.280;2023-03-01T04:05:39;19.73;;;11.97;;
76210;SDS011;65003;49.518;11.280;2023-03-01T04:08:06;17.93;;;11.33;;
76210;SDS011;65003;49.518;11.280;2023-03-01T04:10:34;20.03;;;11.73;;
76210;SDS011;65003;49.518;11.280;2023-03-01T04:13:00;23.97;;;11.67;;
76210;SDS011;65003;49.518;11.280;2023-03-01T04:15:27;20.97;;;11.20;;
76210;SDS011;65003;49.518;11.280;2023-03-01T04:17:54;18.17;;;11.60;;
76210;SDS011;65003;49.518;11.280;2023-03-01T04:20:22;17.33;;;11.90;;
76210;SDS011;65003;49.518;11.280;2023-03-01T04:22:52;17.43;;;11.10;;
76210;SDS011;65003;49.518;11.280;2023-03-01T04:25:18;17.47;;;10.60;;
76210;SDS011;65003;49.518;11.280;2023-03-01T04:27:44;19.80;;;12.27;;
76210;SDS011;65003;49.518;11.280;2023-03-01T04:30:11;20.80;;;12.17;;
76210;SDS011;65003;49.518;11.280;2023-03-01T04:32:37;18.83;;;11.73;;
76210;SDS011;65003;49.518;11.280;2023-03-01T04:35:05;19.47;;;11.17;;
76210;SDS011;65003;49.518;11.280;2023-03-01T04:37:32;20.60;;;11.43;;
76210;SDS011;65003;49.518;11.280;2023-03-01T04:39:58;20.80;;;11.00;;
76210;SDS011;65003;49.518;11.280;2023-03-01T04:42:25;17.83;;;10.93;;
76210;SDS011;65003;49.518;11.280;2023-03-01T04:44:51;21.37;;;12.10;;
76210;SDS011;65003;49.518;11.280;2023-03-01T04:47:18;20.13;;;12.37;;
76210;SDS011;65003;49.518;11.280;2023-03-01T04:49:45;16.57;;;11.17;;
76210;SDS011;65003;49.518;11.280;2023-03-01T04:52:12;18.63;;;12.63;;
76210;SDS011;65003;49.518;11.280;2023-03-01T04:54:39;19.60;;;12.47;;
76210;SDS011;65003;49.518;11.280;2023-03-01T04:57:06;20.27;;;11.70;;
76210;SDS011;65003;49.518;11.280;2023-03-01T04:59:33;22.80;;;11.73;;
76210;SDS011;65003;49.518;11.280;2023-03-01T05:02:00;21.83;;;12.10;;
76210;SDS011;65003;49.518;11.280;2023-03-01T05:04:27;18.30;;;11.23;;
76210;SDS011;65003;49.518;11.280;2023-03-01T05:06:53;20.73;;;11.63;;
76210;SDS011;65003;49.518;11.280;2023-03-01T05:09:20;21.53;;;11.60;;
76210;SDS011;65003;49.518;11.280;2023-03-01T05:11:46;21.27;;;13.03;;
76210;SDS011;65003;49.518;11.280;2023-03-01T05:14:13;23.03;;;12.93;;
76210;SDS011;65003;49.518;11.280;2023-03-01T05:16:39;18.13;;;12.03;;
76210;SDS011;65003;49.518;11.280;2023-03-01T05:19:06;17.80;;;11.47;;
76210;SDS011;65003;49.518;11.280;2023-03-01T05:21:48;21.43;;;12.70;;
76210;SDS011;65003;49.518;11.280;2023-03-01T05:24:20;20.03;;;12.60;;
76210;SDS011;65003;49.518;11.280;2023-03-01T05:26:46;22.63;;;12.67;;
76210;SDS011;65003;49.518;11.280;2023-03-01T05:29:13;23.87;;;13.10;;
76210;SDS011;65003;49.518;11.280;2023-03-01T05:31:40;20.27;;;12.27;;
76210;SDS011;65003;49.518;11.280;2023-03-01T05:34:06;22.07;;;12.73;;
76210;SDS011;65003;49.518;11.280;2023-03-01T05:36:33;25.03;;;12.83;;
76210;SDS011;65003;49.518;11.280;2023-03-01T05:38:59;19.37;;;11.67;;
76210;SDS011;65003;49.518;11.280;2023-03-01T05:41:26;23.93;;;12.43;;
76210;SDS011;65003;49.518;11.280;2023-03-01T05:43:53;18.83;;;11.70;;
76210;SDS011;65003;49.518;11.280;2023-03-01T05:46:19;24.20;;;14.57;;
76210;SDS011;65003;49.518;11.280;2023-03-01T05:48:46;23.43;;;14.00;;
76210;SDS011;65003;49.518;11.280;2023-03-01T05:51:13;21.70;;;11.60;;
76210;SDS011;65003;49.518;11.280;2023-03-01T05:53:40;24.27;;;13.47;;
76210;SDS011;65003;49.518;11.280;2023-03-01T05:56:06;21.97;;;13.50;;
76210;SDS011;65003;49.518;11.280;2023-03-01T05:58:33;17.50;;;12.07;;
76210;SDS011;65003;49.518;11.280;2023-03-01T06:01:00;20.93;;;13.67;;
76210;SDS011;65003;49.518;11.280;2023-03-01T06:03:31;23.97;;;13.17;;
76210;SDS011;65003;49.518;11.280;2023-03-01T06:05:58;23.60;;;12.73;;
76210;SDS011;65003;49.518;11.280;2023-03-01T06:08:24;19.93;;;12.53;;
76210;SDS011;65003;49.518;11.280;2023-03-01T06:10:51;18.40;;;11.43;;
76210;SDS011;65003;49.518;11.280;2023-03-01T06:13:17;22.07;;;12.87;;
76210;SDS011;65003;49.518;11.280;2023-03-01T06:15:44;20.87;;;12.50;;
76210;SDS011;65003;49.518;11.280;2023-03-01T06:18:11;20.00;;;11.93;;
76210;SDS011;65003;49.518;11.280;2023-03-01T06:20:37;18.87;;;12.10;;
76210;SDS011;65003;49.518;11.280;2023-03-01T06:23:04;19.90;;;12.20;;
76210;SDS011;65003;49.518;11.280;2023-03-01T06:25:31;17.90;;;12.00;;
76210;SDS011;65003;49.518;11.280;2023-03-01T06:27:57;23.43;;;13.03;;
76210;SDS011;65003;49.518;11.280;2023-03-01T06:30:24;18.90;;;11.23;;
76210;SDS011;65003;49.518;11.280;2023-03-01T06:32:50;19.00;;;11.97;;
76210;SDS011;65003;49.518;11.280;2023-03-01T06:35:17;21.50;;;12.53;;
76210;SDS011;65003;49.518;11.280;2023-03-01T06:37:44;22.33;;;12.53;;
76210;SDS011;65003;49.518;11.280;2023-03-01T06:40:10;21.63;;;12.03;;
76210;SDS011;65003;49.518;11.280;2023-03-01T06:42:38;20.73;;;12.13;;
76210;SDS011;65003;49.518;11.280;2023-03-01T06:45:04;19.47;;;12.07;;
76210;SDS011;65003;49.518;11.280;2023-03-01T06:47:31;36.03;;;15.03;;
76210;SDS011;65003;49.518;11.280;2023-03-01T06:49:59;21.27;;;13.10;;
76210;SDS011;65003;49.518;11.280;2023-03-01T06:52:26;27.17;;;13.97;;
76210;SDS011;65003;49.518;11.280;2023-03-01T06:54:52;21.50;;;12.63;;
76210;SDS011;65003;49.518;11.280;2023-03-01T06:57:19;21.07;;;13.23;;
76210;SDS011;65003;49.518;11.280;2023-03-01T06:59:46;20.70;;;12.40;;
76210;SDS011;65003;49.518;11.280;2023-03-01T07:02:12;19.30;;;12.43;;
76210;SDS011;65003;49.518;11.280;2023-03-01T07:04:39;18.50;;;12.20;;
76210;SDS011;65003;49.518;11.280;2023-03-01T07:07:05;24.30;;;13.47;;
76210;SDS011;65003;49.518;11.280;2023-03-01T07:09:32;19.70;;;12.37;;
76210;SDS011;65003;49.518;11.280;2023-03-01T07:11:58;20.63;;;11.97;;
76210;SDS011;65003;49.518;11.280;2023-03-01T07:14:25;22.33;;;13.83;;
76210;SDS011;65003;49.518;11.280;2023-03-01T07:16:53;20.67;;;12.77;;
76210;SDS011;65003;49.518;11.280;2023-03-01T07:19:19;22.83;;;13.43;;
76210;SDS011;65003;49.518;11.280;2023-03-01T07:21:46;24.23;;;13.70;;
76210;SDS011;65003;49.518;11.280;2023-03-01T07:24:12;19.10;;;12.33;;
76210;SDS011;65003;49.518;11.280;2023-03-01T07:26:39;19.07;;;12.63;;
76210;SDS011;65003;49.518;11.280;2023-03-01T07:29:06;25.20;;;14.07;;
76210;SDS011;65003;49.518;11.280;2023-03-01T07:31:32;22.53;;;12.83;;
76210;SDS011;65003;49.518;11.280;2023-03-01T07:33:59;20.73;;;12.13;;
76210;SDS011;65003;49.518;11.280;2023-03-01T07:36:26;21.87;;;12.47;;
76210;SDS011;65003;49.518;11.280;2023-03-01T07:38:52;20.93;;;12.83;;
76210;SDS011;65003;49.518;11.280;2023-03-01T07:41:19;22.00;;;11.70;;
76210;SDS011;65003;49.518;11.280;2023-03-01T07:43:45;21.13;;;12.40;;
76210;SDS011;65003;49.518;11.280;2023-03-01T07:46:12;19.67;;;11.47;;
76210;SDS011;65003;49.518;11.280;2023-03-01T07:48:39;20.63;;;12.03;;
76210;SDS011;65003;49.518;11.280;2023-03-01T07:51:05;20.30;;;12.00;;
76210;SDS011;65003;49.518;11.280;2023-03-01T07:53:32;18.07;;;12.30;;
76210;SDS011;65003;49.518;11.280;2023-03-01T07:56:00;19.33;;;12.67;;
76210;SDS011;65003;49.518;11.280;2023-03-01T07:58:26;19.03;;;12.70;;
76210;SDS011;65003;49.518;11.280;2023-03-01T08:00:52;15.80;;;10.93;;
76210;SDS011;65003;49.518;11.280;2023-03-01T08:03:19;19.43;;;13.27;;
76210;SDS011;65003;49.518;11.280;2023-03-01T08:05:46;19.63;;;11.87;;
76210;SDS011;65003;49.518;11.280;2023-03-01T08:08:12;19.17;;;12.43;;
76210;SDS011;65003;49.518;11.280;2023-03-01T08:10:39;19.90;;;12.47;;
76210;SDS011;65003;49.518;11.280;2023-03-01T08:13:05;16.80;;;12.00;;
76210;SDS011;65003;49.518;11.280;2023-03-01T08:15:33;20.60;;;13.13;;
76210;SDS011;65003;49.518;11.280;2023-03-01T08:17:59;20.40;;;13.67;;
76210;SDS011;65003;49.518;11.280;2023-03-01T08:20:26;18.13;;;11.97;;
76210;SDS011;65003;49.518;11.280;2023-03-01T08:22:52;17.90;;;13.07;;
76210;SDS011;65003;49.518;11.280;2023-03-01T08:25:19;18.40;;;12.60;;
76210;SDS011;65003;49.518;11.280;2023-03-01T08:27:45;18.70;;;13.27;;
76210;SDS011;65003;49.518;11.280;2023-03-01T08:30:12;19.47;;;12.70;;
76210;SDS011;65003;49.518;11.280;2023-03-01T08:32:39;17.30;;;13.07;;
76210;SDS011;65003;49.518;11.280;2023-03-01T08:35:06;20.07;;;13.20;;
76210;SDS011;65003;49.518;11.280;2023-03-01T08:37:33;19.83;;;13.93;;
76210;SDS011;65003;49.518;11.280;2023-03-01T08:40:00;17.10;;;13.20;;
76210;SDS011;65003;49.518;11.280;2023-03-01T08:42:26;16.77;;;12.77;;
76210;SDS011;65003;49.518;11.280;2023-03-01T08:44:53;21.97;;;13.73;;
76210;SDS011;65003;49.518;11.280;2023-03-01T08:47:20;22.63;;;14.73;;
76210;SDS011;65003;49.518;11.280;2023-03-01T08:49:46;20.33;;;14.20;;
76210;SDS011;65003;49.518;11.280;2023-03-01T08:52:13;19.27;;;14.03;;
76210;SDS011;65003;49.518;11.280;2023-03-01T08:54:39;19.20;;;13.07;;
76210;SDS011;65003;49.518;11.280;2023-03-01T08:57:06;19.67;;;13.43;;
76210;SDS011;65003;49.518;11.280;2023-03-01T08:59:33;19.73;;;13.10;;
76210;SDS011;65003;49.518;11.280;2023-03-01T09:01:59;18.83;;;14.47;;
76210;SDS011;65003;49.518;11.280;2023-03-01T09:04:27;20.50;;;14.53;;
76210;SDS011;65003;49.518;11.280;2023-03-01T09:06:53;18.77;;;14.07;;
76210;SDS011;65003;49.518;11.280;2023-03-01T09:09:20;20.20;;;14.00;;
76210;SDS011;65003;49.518;11.280;2023-03-01T09:11:46;26.10;;;16.40;;
76210;SDS011;65003;49.518;11.280;2023-03-01T09:14:13;19.17;;;13.80;;
76210;SDS011;65003;49.518;11.280;2023-03-01T09:16:39;20.13;;;13.93;;
76210;SDS011;65003;49.518;11.280;2023-03-01T09:19:06;20.07;;;14.23;;
76210;SDS011;65003;49.518;11.280;2023-03-01T09:21:33;20.93;;;14.67;;
76210;SDS011;65003;49.518;11.280;2023-03-01T09:23:59;22.50;;;13.73;;
76210;SDS011;65003;49.518;11.280;2023-03-01T09:26:26;19.60;;;13.83;;
76210;SDS011;65003;49.518;11.280;2023-03-01T09:28:53;17.93;;;13.47;;
76210;SDS011;65003;49.518;11.280;2023-03-01T09:31:20;18.73;;;13.73;;
76210;SDS011;65003;49.518;11.280;2023-03-01T09:33:46;20.93;;;14.40;;
76210;SDS011;65003;49.518;11.280;2023-03-01T09:36:13;19.70;;;13.50;;
76210;SDS011;65003;49.518;11.280;2023-03-01T09:38:39;18.60;;;14.13;;
76210;SDS011;65003;49.518;11.280;2023-03-01T09:41:09;22.63;;;13.87;;
76210;SDS011;65003;49.518;11.280;2023-03-01T09:43:44;21.63;;;14.27;;
76210;SDS011;65003;49.518;11.280;2023-03-01T09:46:12;17.90;;;13.33;;
76210;SDS011;65003;49.518;11.280;2023-03-01T09:48:41;20.50;;;13.60;;
76210;SDS011;65003;49.518;11.280;2023-03-01T09:51:17;18.03;;;12.70;;
76210;SDS011;65003;49.518;11.280;2023-03-01T09:53:44;18.50;;;13.67;;
76210;SDS011;65003;49.518;11.280;2023-03-01T09:56:14;18.37;;;13.73;;
76210;SDS011;65003;49.518;11.280;2023-03-01T09:58:51;21.97;;;14.47;;
76210;SDS011;65003;49.518;11.280;2023-03-01T10:01:29;21.17;;;14.53;;
76210;SDS011;65003;49.518;11.280;2023-03-01T10:05:05;17.67;;;13.17;;
76210;SDS011;65003;49.518;11.280;2023-03-01T10:07:02;21.43;;;13.97;;
76210;SDS011;65003;49.518;11.280;2023-03-01T10:09:33;17.80;;;12.50;;
76210;SDS011;65003;49.518;11.280;2023-03-01T10:11:52;18.67;;;13.70;;
76210;SDS011;65003;49.518;11.280;2023-03-01T10:14:23;19.57;;;14.20;;
76210;SDS011;65003;49.518;11.280;2023-03-01T10:16:54;18.33;;;13.83;;
76210;SDS011;65003;49.518;11.280;2023-03-01T10:19:23;18.27;;;14.37;;
76210;SDS011;65003;49.518;11.280;2023-03-01T10:21:47;20.30;;;14.30;;
76210;SDS011;65003;49.518;11.280;2023-03-01T10:24:14;19.83;;;13.97;;
76210;SDS011;65003;49.518;11.280;2023-03-01T10:26:47;20.03;;;13.90;;
76210;SDS011;65003;49.518;11.280;2023-03-01T10:29:22;16.47;;;13.30;;
76210;SDS011;65003;49.518;11.280;2023-03-01T10:31:48;16.03;;;12.67;;
76210;SDS011;65003;49.518;11.280;2023-03-01T10:34:15;19.03;;;13.33;;
76210;SDS011;65003;49.518;11.280;2023-03-01T10:36:42;17.33;;;13.67;;
76210;SDS011;65003;49.518;11.280;2023-03-01T10:39:12;17.63;;;14.40;;
76210;SDS011;65003;49.518;11.280;2023-03-01T10:41:40;16.40;;;12.93;;
76210;SDS011;65003;49.518;11.280;2023-03-01T10:44:04;17.97;;;13.53;;
76210;SDS011;65003;49.518;11.280;2023-03-01T10:46:32;17.53;;;12.33;;
76210;SDS011;65003;49.518;11.280;2023-03-01T10:51:33;20.00;;;13.73;;
76210;SDS011;65003;49.518;11.280;2023-03-01T10:54:00;16.97;;;13.50;;
76210;SDS011;65003;49.518;11.280;2023-03-01T10:56:26;20.27;;;13.97;;
76210;SDS011;65003;49.518;11.280;2023-03-01T10:58:59;16.57;;;13.03;;
76210;SDS011;65003;49.518;11.280;2023-03-01T11:01:30;18.30;;;13.30;;
76210;SDS011;65003;49.518;11.280;2023-03-01T11:04:12;17.17;;;12.37;;
76210;SDS011;65003;49.518;11.280;2023-03-01T11:06:40;14.80;;;12.27;;
76210;SDS011;65003;49.518;11.280;2023-03-01T11:09:13;16.63;;;12.73;;
76210;SDS011;65003;49.518;11.280;2023-03-01T11:11:39;17.63;;;11.67;;
76210;SDS011;65003;49.518;11.280;2023-03-01T11:16:39;18.10;;;12.47;;
76210;SDS011;65003;49.518;11.280;2023-03-01T11:19:17;16.50;;;13.03;;
76210;SDS011;65003;49.518;11.280;2023-03-01T11:21:52;16.27;;;12.17;;
76210;SDS011;65003;49.518;11.280;2023-03-01T11:24:39;15.20;;;11.67;;
76210;SDS011;65003;49.518;11.280;2023-03-01T11:27:16;15.80;;;11.63;;
76210;SDS011;65003;49.518;11.280;2023-03-01T11:29:52;14.57;;;11.47;;
76210;SDS011;65003;49.518;11.280;2023-03-01T11:32:23;18.43;;;12.70;;
76210;SDS011;65003;49.518;11.280;2023-03-01T11:34:51;15.43;;;11.87;;
76210;SDS011;65003;49.518;11.280;2023-03-01T11:37:24;15.30;;;11.87;;
76210;SDS011;65003;49.518;11.280;2023-03-01T11:40:10;16.47;;;12.20;;
76210;SDS011;65003;49.518;11.280;2023-03-01T11:42:42;15.97;;;12.20;;
76210;SDS011;65003;49.518;11.280;2023-03-01T11:45:10;17.43;;;12.73;;
76210;SDS011;65003;49.518;11.280;2023-03-01T11:47:41;17.47;;;12.03;;
76210;SDS011;65003;49.518;11.280;2023-03-01T11:52:46;14.47;;;11.23;;
76210;SDS011;65003;49.518;11.280;2023-03-01T12:03:41;15.50;;;10.83;;
76210;SDS011;65003;49.518;11.280;2023-03-01T12:09:06;15.10;;;10.67;;
76210;SDS011;65003;49.518;11.280;2023-03-01T12:11:41;16.00;;;11.57;;
76210;SDS011;65003;49.518;11.280;2023-03-01T12:14:19;15.27;;;10.03;;
76210;SDS011;65003;49.518;11.280;2023-03-01T12:17:14;14.47;;;10.53;;
76210;SDS011;65003;49.518;11.280;2023-03-01T12:19:50;15.40;;;10.33;;
76210;SDS011;65003;49.518;11.280;2023-03-01T12:22:21;14.13;;;10.37;;
76210;SDS011;65003;49.518;11.280;2023-03-01T12:27:24;14.13;;;10.33;;
76210;SDS011;65003;49.518;11.280;2023-03-01T12:32:40;14.77;;;9.73;;
76210;SDS011;65003;49.518;11.280;2023-03-01T12:35:41;15.67;;;11.03;;
76210;SDS011;65003;49.518;11.280;2023-03-01T12:38:00;15.80;;;10.20;;
76210;SDS011;65003;49.518;11.280;2023-03-01T12:40:38;13.90;;;10.30;;
76210;SDS011;65003;49.518;11.280;2023-03-01T12:43:22;17.50;;;10.30;;
76210;SDS011;65003;49.518;11.280;2023-03-01T12:45:57;13.23;;;9.63;;
76210;SDS011;65003;49.518;11.280;2023-03-01T12:48:27;13.40;;;9.97;;
76210;SDS011;65003;49.518;11.280;2023-03-01T12:50:54;15.70;;;10.73;;
76210;SDS011;65003;49.518;11.280;2023-03-01T12:53:24;15.40;;;9.93;;
76210;SDS011;65003;49.518;11.280;2023-03-01T12:55:53;16.73;;;10.43;;
76210;SDS011;65003;49.518;11.280;2023-03-01T12:58:24;16.20;;;11.03;;
76210;SDS011;65003;49.518;11.280;2023-03-01T13:00:55;15.83;;;10.90;;
76210;SDS011;65003;49.518;11.280;2023-03-01T13:03:57;14.40;;;9.67;;
76210;SDS011;65003;49.518;11.280;2023-03-01T13:06:26;17.47;;;9.37;;
76210;SDS011;65003;49.518;11.280;2023-03-01T13:08:59;13.20;;;9.00;;
76210;SDS011;65003;49.518;11.280;2023-03-01T13:11:25;15.20;;;9.93;;
76210;SDS011;65003;49.518;11.280;2023-03-01T13:13:51;15.50;;;10.10;;
76210;SDS011;65003;49.518;11.280;2023-03-01T13:16:20;13.40;;;10.13;;
76210;SDS011;65003;49.518;11.280;2023-03-01T13:18:45;13.47;;;10.17;;
76210;SDS011;65003;49.518;11.280;2023-03-01T13:21:12;13.40;;;9.83;;
76210;SDS011;65003;49.518;11.280;2023-03-01T13:23:39;17.17;;;10.10;;
76210;SDS011;65003;49.518;11.280;2023-03-01T13:26:08;13.53;;;10.00;;
76210;SDS011;65003;49.518;11.280;2023-03-01T13:34:39;15.63;;;10.70;;
76210;SDS011;65003;49.518;11.280;2023-03-01T13:36:45;14.10;;;10.77;;
76210;SDS011;65003;49.518;11.280;2023-03-01T13:41:57;16.20;;;11.17;;
76210;SDS011;65003;49.518;11.280;2023-03-01T13:49:53;16.93;;;11.03;;
76210;SDS011;65003;49.518;11.280;2023-03-01T13:52:44;16.40;;;11.17;;
76210;SDS011;65003;49.518;11.280;2023-03-01T13:55:18;15.50;;;9.93;;
76210;SDS011;65003;49.518;11.280;2023-03-01T13:57:45;13.67;;;10.73;;
76210;SDS011;65003;49.518;11.280;2023-03-01T14:03:08;15.03;;;10.17;;
76210;SDS011;65003;49.518;11.280;2023-03-01T14:05:34;15.97;;;11.47;;
76210;SDS011;65003;49.518;11.280;2023-03-01T14:08:03;15.23;;;11.53;;
76210;SDS011;65003;49.518;11.280;2023-03-01T14:10:35;15.37;;;11.13;;
76210;SDS011;65003;49.518;11.280;2023-03-01T14:13:02;19.40;;;12.67;;
76210;SDS011;65003;49.518;11.280;2023-03-01T14:15:29;17.93;;;11.40;;
76210;SDS011;65003;49.518;11.280;2023-03-01T14:18:07;16.10;;;10.93;;
76210;SDS011;65003;49.518;11.280;2023-03-01T14:20:38;14.83;;;10.80;;
76210;SDS011;65003;49.518;11.280;2023-03-01T14:23:08;17.93;;;10.80;;
76210;SDS011;65003;49.518;11.280;2023-03-01T14:25:32;14.63;;;9.97;;
76210;SDS011;65003;49.518;11.280;2023-03-01T14:28:10;14.17;;;10.37;;
76210;SDS011;65003;49.518;11.280;2023-03-01T14:30:43;15.30;;;11.10;;
76210;SDS011;65003;49.518;11.280;2023-03-01T14:35:52;13.43;;;10.50;;
76210;SDS011;65003;49.518;11.280;2023-03-01T14:38:20;14.70;;;10.03;;
76210;SDS011;65003;49.518;11.280;2023-03-01T14:40:50;15.07;;;9.70;;
76210;SDS011;65003;49.518;11.280;2023-03-01T14:43:16;15.77;;;10.97;;
76210;SDS011;65003;49.518;11.280;2023-03-01T14:45:42;11.90;;;9.40;;
76210;SDS011;65003;49.518;11.280;2023-03-01T14:48:08;16.23;;;9.73;;
76210;SDS011;65003;49.518;11.280;2023-03-01T14:50:40;14.83;;;9.57;;
76210;SDS011;65003;49.518;11.280;2023-03-01T14:53:03;13.43;;;8.63;;
76210;SDS011;65003;49.518;11.280;2023-03-01T14:55:30;15.90;;;9.40;;
76210;SDS011;65003;49.518;11.280;2023-03-01T14:57:56;13.23;;;9.07;;
76210;SDS011;65003;49.518;11.280;2023-03-01T15:00:25;14.70;;;10.07;;